createdAt,value
2022-08-17T00:00:52.130Z,95.01
2022-08-17T00:01:52.025Z,95.00
2022-08-17T00:02:50.281Z,94.93
2022-08-17T00:03:50.115Z,94.85
2022-08-17T00:04:50.788Z,94.77
2022-08-17T00:05:50.105Z,94.58
2022-08-17T00:06:50.088Z,94.61
2022-08-17T00:07:50.272Z,94.66
2022-08-17T00:08:50.024Z,94.54
2022-08-17T00:09:50.070Z,94.84
2022-08-17T00:10:50.058Z,94.75
2022-08-17T00:12:41.309Z,94.73
2022-08-17T00:12:50.016Z,94.69
2022-08-17T00:13:50.042Z,94.82
2022-08-17T00:14:50.022Z,94.90
2022-08-17T00:15:49.948Z,94.89
2022-08-17T00:16:56.082Z,95.14
2022-08-17T00:17:49.963Z,95.19
2022-08-17T00:19:06.324Z,95.29
2022-08-17T00:19:49.907Z,95.25
2022-08-17T00:20:49.909Z,95.26
2022-08-17T00:22:29.540Z,95.22
2022-08-17T00:22:50.268Z,95.04
2022-08-17T00:23:49.884Z,94.95
2022-08-17T00:24:49.837Z,94.90
2022-08-17T00:25:49.792Z,94.96
2022-08-17T00:26:49.805Z,95.18
2022-08-17T00:27:49.793Z,95.46
2022-08-17T00:28:49.802Z,95.50
2022-08-17T00:29:49.760Z,95.51
2022-08-17T00:30:53.001Z,95.70
2022-08-17T00:31:49.759Z,95.77
2022-08-17T00:33:12.432Z,95.67
2022-08-17T00:33:49.707Z,95.60
2022-08-17T00:34:49.692Z,95.50
2022-08-17T00:35:49.723Z,95.48
2022-08-17T00:36:49.732Z,95.26
2022-08-17T00:37:49.690Z,95.44
2022-08-17T00:38:49.672Z,96.27
2022-08-17T00:39:49.708Z,96.48
2022-08-17T00:40:49.621Z,96.46
2022-08-17T00:41:49.663Z,96.28
2022-08-17T00:42:49.777Z,96.21
2022-08-17T00:43:49.591Z,96.22
2022-08-17T00:44:49.547Z,96.07
2022-08-17T00:45:49.557Z,95.93
2022-08-17T00:46:49.546Z,95.99
2022-08-17T00:47:49.526Z,96.04
2022-08-17T00:48:49.499Z,96.15
2022-08-17T00:49:49.507Z,96.35
2022-08-17T00:50:49.482Z,96.49
2022-08-17T00:51:49.495Z,96.35
2022-08-17T00:52:49.632Z,96.27
2022-08-17T00:53:49.464Z,96.96
2022-08-17T00:54:49.406Z,97.08
2022-08-17T00:55:49.522Z,97.04
2022-08-17T00:56:49.416Z,96.85
2022-08-17T00:57:53.368Z,97.12
2022-08-17T00:58:49.385Z,97.39
2022-08-17T01:00:00.612Z,97.64
2022-08-17T01:00:49.411Z,97.69
2022-08-17T01:01:49.330Z,97.70
2022-08-17T01:02:49.346Z,97.71
2022-08-17T01:03:49.345Z,97.83
2022-08-17T01:04:49.316Z,97.69
2022-08-17T01:05:49.309Z,97.85
2022-08-17T01:06:49.264Z,97.86
2022-08-17T01:07:49.276Z,97.89
2022-08-17T01:08:49.312Z,97.90
2022-08-17T01:09:49.238Z,97.81
2022-08-17T01:11:00.583Z,97.95
2022-08-17T01:11:49.273Z,98.42
2022-08-17T01:12:49.361Z,98.61
2022-08-17T01:13:49.149Z,98.46
2022-08-17T01:14:49.200Z,98.31
2022-08-17T01:15:49.140Z,98.16
2022-08-17T01:16:49.206Z,97.95
2022-08-17T01:17:49.122Z,97.70
2022-08-17T01:18:49.150Z,97.65
2022-08-17T01:19:49.081Z,97.87
2022-08-17T01:20:49.109Z,98.30
2022-08-17T01:21:49.097Z,98.41
2022-08-17T01:22:49.234Z,98.41
2022-08-17T01:23:49.038Z,98.71
2022-08-17T01:24:49.052Z,98.96
2022-08-17T01:25:49.187Z,99.17
2022-08-17T01:26:49.090Z,99.40
2022-08-17T01:27:48.981Z,99.46
2022-08-17T01:28:55.110Z,99.45
2022-08-17T01:29:49.010Z,99.40
2022-08-17T01:30:58.678Z,99.32
2022-08-17T01:31:48.929Z,99.03
2022-08-17T01:32:49.156Z,98.56
2022-08-17T01:33:48.883Z,98.27
2022-08-17T01:34:50.606Z,97.86
2022-08-17T01:35:48.862Z,97.48
2022-08-17T01:36:48.919Z,97.37
2022-08-17T01:37:48.911Z,97.22
2022-08-17T01:38:48.853Z,97.55
2022-08-17T01:39:48.877Z,97.70
2022-08-17T01:40:48.806Z,97.66
2022-08-17T01:41:48.839Z,97.75
2022-08-17T01:42:49.053Z,97.86
2022-08-17T01:43:48.781Z,97.93
2022-08-17T01:44:48.756Z,98.01
2022-08-17T01:45:48.753Z,98.02
2022-08-17T01:46:48.750Z,98.04
2022-08-17T01:47:48.752Z,98.09
2022-08-17T01:48:48.777Z,98.13
2022-08-17T01:49:48.656Z,98.21
2022-08-17T01:50:48.680Z,98.22
2022-08-17T01:51:48.653Z,98.21
2022-08-17T01:52:49.054Z,98.13
2022-08-17T01:53:48.610Z,98.12
2022-08-17T01:54:48.625Z,98.12
2022-08-17T01:55:48.620Z,98.06
2022-08-17T01:56:48.613Z,98.03
2022-08-17T01:57:48.588Z,97.96
2022-08-17T01:58:48.627Z,98.11
2022-08-17T01:59:48.577Z,98.18
2022-08-17T02:01:00.732Z,98.12
2022-08-17T02:01:48.557Z,97.87
2022-08-17T02:02:48.619Z,98.13
2022-08-17T02:03:56.236Z,98.41
2022-08-17T02:04:48.486Z,98.50
2022-08-17T02:05:48.453Z,98.80
2022-08-17T02:06:54.219Z,98.95
2022-08-17T02:08:00.210Z,99.02
2022-08-17T02:09:01.539Z,99.08
2022-08-17T02:09:52.581Z,99.08
2022-08-17T02:10:48.445Z,98.98
2022-08-17T02:11:48.440Z,98.92
2022-08-17T02:12:48.401Z,98.92
2022-08-17T02:13:48.330Z,99.08
2022-08-17T02:14:48.378Z,99.17
2022-08-17T02:15:48.339Z,99.15
2022-08-17T02:16:48.334Z,99.35
2022-08-17T02:17:48.300Z,99.36
2022-08-17T02:18:48.293Z,99.43
2022-08-17T02:19:48.295Z,99.34
2022-08-17T02:20:48.311Z,99.38
2022-08-17T02:21:48.249Z,99.48
2022-08-17T02:22:48.393Z,99.43
2022-08-17T02:23:48.231Z,99.44
2022-08-17T02:24:59.509Z,99.49
2022-08-17T02:25:48.227Z,99.66
2022-08-17T02:26:48.170Z,99.87
2022-08-17T02:27:48.127Z,100.00
2022-08-17T02:28:48.178Z,100.00
2022-08-17T02:29:48.185Z,100.00
2022-08-17T02:30:59.056Z,100.00
2022-08-17T02:31:48.105Z,100.00
2022-08-17T02:32:48.166Z,100.00
2022-08-17T02:33:56.584Z,100.00
2022-08-17T02:34:48.101Z,100.00
2022-08-17T02:35:48.050Z,99.92
2022-08-17T02:36:48.074Z,99.54
2022-08-17T02:37:48.958Z,99.66
2022-08-17T02:38:48.027Z,99.86
2022-08-17T02:39:48.027Z,100.00
2022-08-17T02:40:47.991Z,100.00
2022-08-17T02:41:47.956Z,100.00
2022-08-17T02:42:47.941Z,100.00
2022-08-17T02:43:47.922Z,100.00
2022-08-17T02:44:47.937Z,100.00
2022-08-17T02:45:47.958Z,100.00
2022-08-17T02:46:47.915Z,100.00
2022-08-17T02:47:47.877Z,99.95
2022-08-17T02:48:47.916Z,100.00
2022-08-17T02:49:49.365Z,100.00
2022-08-17T02:50:47.873Z,100.00
2022-08-17T02:51:47.833Z,100.00
2022-08-17T02:52:55.231Z,100.00
2022-08-17T02:53:47.814Z,100.00
2022-08-17T02:54:47.842Z,100.00
2022-08-17T02:55:47.860Z,100.00
2022-08-17T02:56:47.775Z,100.00
2022-08-17T02:57:47.765Z,100.00
2022-08-17T02:58:47.771Z,100.00
2022-08-17T02:59:49.157Z,100.00
2022-08-17T03:00:47.710Z,100.00
2022-08-17T03:01:47.791Z,100.00
2022-08-17T03:02:47.874Z,100.00
2022-08-17T03:03:47.715Z,100.00
2022-08-17T03:04:47.654Z,100.00
2022-08-17T03:05:47.706Z,100.00
2022-08-17T03:06:47.650Z,100.00
2022-08-17T03:07:47.639Z,100.00
2022-08-17T03:08:47.635Z,100.00
2022-08-17T03:09:47.612Z,100.00
2022-08-17T03:10:47.644Z,100.00
2022-08-17T03:11:47.645Z,100.00
2022-08-17T03:12:47.596Z,100.00
2022-08-17T03:13:47.595Z,100.00
2022-08-17T03:14:47.535Z,100.00
2022-08-17T03:15:47.509Z,100.00
2022-08-17T03:16:47.528Z,100.00
2022-08-17T03:17:47.501Z,100.00
2022-08-17T03:18:47.458Z,100.00
2022-08-17T03:19:47.470Z,100.00
2022-08-17T03:20:47.432Z,100.00
2022-08-17T03:21:47.415Z,100.00
2022-08-17T03:22:53.086Z,100.00
2022-08-17T03:23:47.501Z,100.00
2022-08-17T03:24:47.366Z,100.00
2022-08-17T03:25:47.356Z,100.00
2022-08-17T03:26:47.361Z,100.00
2022-08-17T03:27:48.241Z,100.00
2022-08-17T03:28:47.323Z,100.00
2022-08-17T03:29:47.321Z,100.00
2022-08-17T03:30:47.308Z,100.00
2022-08-17T03:31:47.289Z,100.00
2022-08-17T03:32:47.344Z,100.00
2022-08-17T03:33:47.244Z,100.00
2022-08-17T03:34:47.258Z,100.00
2022-08-17T03:35:47.232Z,100.00
2022-08-17T03:36:47.231Z,100.00
2022-08-17T03:37:47.172Z,100.00
2022-08-17T03:38:47.185Z,100.00
2022-08-17T03:39:47.186Z,100.00
2022-08-17T03:40:57.510Z,100.00
2022-08-17T03:41:47.157Z,100.00
2022-08-17T03:42:47.150Z,100.00
2022-08-17T03:43:47.139Z,100.00
2022-08-17T03:44:47.101Z,100.00
2022-08-17T03:45:47.081Z,100.00
2022-08-17T03:46:47.077Z,100.00
2022-08-17T03:47:47.065Z,100.00
2022-08-17T03:48:47.065Z,100.00
2022-08-17T03:49:47.027Z,100.00
2022-08-17T03:50:47.022Z,100.00
2022-08-17T03:51:46.997Z,100.00
2022-08-17T03:52:46.986Z,100.00
2022-08-17T03:53:46.975Z,100.00
2022-08-17T03:54:46.972Z,100.00
2022-08-17T03:55:46.963Z,100.00
2022-08-17T03:56:46.969Z,100.00
2022-08-17T03:57:46.932Z,100.00
2022-08-17T03:58:46.904Z,100.00
2022-08-17T03:59:46.915Z,100.00
2022-08-17T04:00:46.906Z,100.00
2022-08-17T04:01:46.911Z,100.00
2022-08-17T04:02:46.906Z,100.00
2022-08-17T04:03:46.820Z,100.00
2022-08-17T04:04:46.837Z,100.00
2022-08-17T04:05:46.791Z,100.00
2022-08-17T04:06:46.819Z,100.00
2022-08-17T04:07:46.791Z,100.00
2022-08-17T04:08:46.778Z,100.00
2022-08-17T04:09:46.757Z,100.00
2022-08-17T04:10:46.720Z,100.00
2022-08-17T04:11:46.733Z,100.00
2022-08-17T04:12:46.799Z,100.00
2022-08-17T04:13:46.721Z,100.00
2022-08-17T04:14:53.030Z,100.00
2022-08-17T04:15:46.661Z,100.00
2022-08-17T04:16:47.057Z,100.00
2022-08-17T04:17:46.816Z,100.00
2022-08-17T04:18:47.169Z,100.00
2022-08-17T04:19:46.622Z,100.00
2022-08-17T04:20:46.670Z,100.00
2022-08-17T04:21:46.590Z,100.00
2022-08-17T04:22:46.636Z,100.00
2022-08-17T04:23:47.005Z,100.00
2022-08-17T04:24:46.809Z,100.00
2022-08-17T04:25:46.528Z,100.00
2022-08-17T04:26:53.261Z,100.00
2022-08-17T04:27:46.488Z,100.00
2022-08-17T04:28:46.491Z,100.00
2022-08-17T04:29:55.041Z,100.00
2022-08-17T04:30:46.454Z,100.00
2022-08-17T04:31:46.444Z,100.00
2022-08-17T04:33:04.768Z,100.00
2022-08-17T04:33:46.445Z,100.00
2022-08-17T04:34:46.408Z,100.00
2022-08-17T04:35:46.399Z,100.00
2022-08-17T04:36:50.426Z,100.00
2022-08-17T04:37:46.396Z,100.00
2022-08-17T04:38:46.339Z,100.00
2022-08-17T04:39:46.379Z,100.00
2022-08-17T04:40:46.310Z,100.00
2022-08-17T04:41:46.310Z,100.00
2022-08-17T04:42:46.305Z,99.89
2022-08-17T04:43:46.300Z,99.65
2022-08-17T04:44:46.262Z,99.42
2022-08-17T04:45:55.383Z,99.45
2022-08-17T04:46:46.245Z,99.45
2022-08-17T04:47:46.213Z,99.55
2022-08-17T04:48:46.252Z,99.56
2022-08-17T04:49:46.193Z,99.52
2022-08-17T04:50:46.175Z,99.52
2022-08-17T04:51:54.631Z,99.42
2022-08-17T04:52:46.161Z,99.30
2022-08-17T04:53:46.151Z,99.28
2022-08-17T04:54:46.171Z,99.34
2022-08-17T04:55:46.122Z,99.48
2022-08-17T04:56:46.117Z,99.55
2022-08-17T04:57:46.086Z,99.56
2022-08-17T04:58:46.076Z,99.51
2022-08-17T04:59:46.056Z,99.50
2022-08-17T05:00:46.070Z,99.21
2022-08-17T05:01:46.088Z,98.73
2022-08-17T05:02:50.352Z,98.28
2022-08-17T05:03:46.013Z,98.03
2022-08-17T05:04:46.007Z,97.77
2022-08-17T05:05:45.990Z,97.65
2022-08-17T05:06:45.975Z,97.35
2022-08-17T05:07:45.970Z,97.13
2022-08-17T05:08:45.951Z,96.83
2022-08-17T05:09:46.036Z,96.54
2022-08-17T05:10:45.975Z,96.19
2022-08-17T05:11:45.903Z,95.99
2022-08-17T05:12:46.003Z,95.84
2022-08-17T05:13:45.858Z,95.57
2022-08-17T05:14:45.903Z,95.27
2022-08-17T05:15:47.890Z,95.06
2022-08-17T05:16:45.855Z,94.77
2022-08-17T05:17:45.843Z,94.70
2022-08-17T05:18:45.823Z,94.35
2022-08-17T05:19:51.370Z,94.28
2022-08-17T05:20:45.805Z,93.98
2022-08-17T05:21:45.802Z,93.76
2022-08-17T05:22:45.751Z,93.47
2022-08-17T05:23:53.252Z,93.32
2022-08-17T05:24:53.916Z,93.12
2022-08-17T05:25:47.707Z,92.96
2022-08-17T05:26:45.717Z,92.89
2022-08-17T05:27:45.744Z,92.69
2022-08-17T05:28:45.662Z,93.03
2022-08-17T05:29:45.659Z,93.01
2022-08-17T05:30:45.676Z,92.82
2022-08-17T05:31:45.645Z,92.63
2022-08-17T05:32:45.630Z,92.32
2022-08-17T05:33:46.320Z,92.16
2022-08-17T05:34:45.635Z,91.99
2022-08-17T05:35:45.575Z,92.19
2022-08-17T05:36:45.570Z,92.24
2022-08-17T05:37:45.564Z,92.24
2022-08-17T05:38:45.525Z,91.91
2022-08-17T05:39:45.555Z,91.97
2022-08-17T05:40:45.526Z,91.48
2022-08-17T05:41:45.511Z,91.24
2022-08-17T05:42:45.491Z,90.55
2022-08-17T05:43:45.485Z,89.79
2022-08-17T05:44:45.463Z,90.03
2022-08-17T05:45:55.576Z,89.62
2022-08-17T05:46:45.447Z,89.06
2022-08-17T05:47:45.419Z,88.86
2022-08-17T05:48:45.397Z,87.27
2022-08-17T05:49:45.421Z,86.23
2022-08-17T05:50:45.399Z,86.05
2022-08-17T05:51:45.381Z,85.68
2022-08-17T05:52:45.338Z,85.45
2022-08-17T05:53:45.333Z,85.65
2022-08-17T05:54:45.332Z,85.05
2022-08-17T05:55:45.310Z,84.30
2022-08-17T05:56:45.326Z,84.31
2022-08-17T05:57:53.310Z,84.24
2022-08-17T05:58:45.263Z,83.53
2022-08-17T05:59:45.292Z,83.31
2022-08-17T06:00:45.317Z,83.47
2022-08-17T06:01:45.243Z,83.84
2022-08-17T06:02:47.889Z,83.45
2022-08-17T06:03:45.222Z,81.80
2022-08-17T06:04:45.205Z,80.68
2022-08-17T06:05:45.191Z,81.15
2022-08-17T06:06:45.187Z,80.74
2022-08-17T06:07:45.162Z,81.15
2022-08-17T06:08:45.161Z,80.89
2022-08-17T06:09:45.121Z,81.38
2022-08-17T06:10:45.139Z,81.22
2022-08-17T06:11:45.093Z,81.50
2022-08-17T06:12:45.075Z,78.78
2022-08-17T06:13:45.755Z,77.88
2022-08-17T06:14:45.085Z,78.18
2022-08-17T06:15:45.050Z,78.49
2022-08-17T06:16:45.043Z,77.77
2022-08-17T06:17:45.028Z,77.82
2022-08-17T06:18:45.034Z,77.99
2022-08-17T06:19:44.984Z,78.64
2022-08-17T06:20:44.983Z,79.19
2022-08-17T06:21:45.597Z,79.43
2022-08-17T06:22:44.996Z,79.37
2022-08-17T06:23:45.003Z,77.20
2022-08-17T06:24:44.923Z,78.47
2022-08-17T06:25:44.919Z,77.96
2022-08-17T06:26:44.892Z,77.21
2022-08-17T06:27:44.909Z,77.68
2022-08-17T06:28:44.870Z,78.53
2022-08-17T06:29:44.889Z,79.23
2022-08-17T06:30:59.219Z,79.55
2022-08-17T06:31:49.465Z,79.55
2022-08-17T06:32:44.835Z,78.83
2022-08-17T06:33:44.861Z,78.48
2022-08-17T06:34:44.801Z,78.01
2022-08-17T06:35:44.814Z,77.99
2022-08-17T06:36:44.826Z,77.64
2022-08-17T06:37:44.803Z,79.40
2022-08-17T06:38:44.761Z,78.05
2022-08-17T06:39:44.824Z,77.55
2022-08-17T06:40:44.698Z,75.78
2022-08-17T06:41:44.696Z,74.02
2022-08-17T06:42:54.882Z,74.47
2022-08-17T06:43:47.921Z,74.21
2022-08-17T06:44:51.443Z,74.21
2022-08-17T06:45:44.658Z,73.52
2022-08-17T06:46:44.647Z,73.79
2022-08-17T06:47:44.613Z,73.11
2022-08-17T06:48:44.611Z,73.28
2022-08-17T06:49:44.630Z,72.40
2022-08-17T06:50:44.595Z,71.51
2022-08-17T06:51:44.577Z,71.59
2022-08-17T06:52:46.371Z,71.62
2022-08-17T06:53:44.564Z,71.05
2022-08-17T06:54:44.510Z,70.48
2022-08-17T06:55:44.530Z,69.90
2022-08-17T06:56:53.808Z,69.10
2022-08-17T06:57:44.480Z,68.15
2022-08-17T06:58:44.481Z,67.55
2022-08-17T06:59:55.044Z,67.75
2022-08-17T07:00:44.520Z,68.12
2022-08-17T07:01:44.444Z,66.76
2022-08-17T07:02:52.052Z,67.06
2022-08-17T07:03:44.401Z,66.85
2022-08-17T07:04:44.421Z,66.58
2022-08-17T07:05:44.453Z,66.92
2022-08-17T07:06:44.376Z,65.68
2022-08-17T07:07:44.364Z,65.66
2022-08-17T07:08:44.367Z,65.76
2022-08-17T07:09:44.344Z,65.14
2022-08-17T07:10:44.310Z,63.41
2022-08-17T07:11:44.307Z,63.86
2022-08-17T07:12:44.306Z,63.87
2022-08-17T07:13:44.333Z,64.33
2022-08-17T07:14:44.286Z,62.99
2022-08-17T07:15:44.332Z,62.45
2022-08-17T07:16:44.242Z,61.84
2022-08-17T07:17:47.194Z,61.60
2022-08-17T07:18:44.243Z,61.76
2022-08-17T07:19:44.208Z,60.78
2022-08-17T07:20:44.242Z,61.26
2022-08-17T07:21:44.181Z,61.12
2022-08-17T07:22:57.509Z,61.08
2022-08-17T07:23:44.252Z,60.63
2022-08-17T07:24:44.158Z,60.09
2022-08-17T07:25:44.156Z,60.30
2022-08-17T07:26:44.099Z,59.12
2022-08-17T07:27:44.152Z,59.65
2022-08-17T07:28:44.103Z,59.46
2022-08-17T07:29:44.122Z,58.66
2022-08-17T07:30:47.095Z,58.34
2022-08-17T07:31:44.060Z,58.13
2022-08-17T07:32:44.070Z,58.57
2022-08-17T07:33:44.007Z,58.59
2022-08-17T07:34:44.003Z,57.35
2022-08-17T07:35:44.133Z,55.81
2022-08-17T07:36:44.012Z,56.29
2022-08-17T07:37:43.980Z,55.83
2022-08-17T07:38:43.975Z,56.55
2022-08-17T07:40:14.785Z,56.16
2022-08-17T07:40:43.943Z,55.51
2022-08-17T07:41:57.930Z,56.03
2022-08-17T07:42:46.783Z,56.27
2022-08-17T07:43:43.952Z,55.14
2022-08-17T07:44:43.865Z,55.14
2022-08-17T07:45:43.879Z,54.32
2022-08-17T07:46:43.839Z,53.92
2022-08-17T07:47:43.961Z,54.10
2022-08-17T07:48:43.850Z,54.78
2022-08-17T07:49:43.837Z,54.78
2022-08-17T07:50:49.613Z,54.35
2022-08-17T07:51:43.833Z,53.60
2022-08-17T07:52:51.997Z,53.33
2022-08-17T07:53:43.865Z,52.89
2022-08-17T07:54:43.742Z,53.70
2022-08-17T07:55:43.714Z,53.56
2022-08-17T07:56:43.719Z,53.26
2022-08-17T07:57:43.895Z,53.20
2022-08-17T07:58:43.699Z,53.33
2022-08-17T07:59:43.701Z,52.12
2022-08-17T08:00:43.659Z,51.39
2022-08-17T08:01:43.755Z,51.76
2022-08-17T08:02:43.630Z,50.64
2022-08-17T08:03:43.620Z,49.93
2022-08-17T08:04:59.633Z,49.98
2022-08-17T08:05:49.667Z,49.30
2022-08-17T08:06:43.694Z,49.62
2022-08-17T08:07:43.654Z,49.25
2022-08-17T08:08:43.541Z,49.26
2022-08-17T08:09:43.536Z,48.93
2022-08-17T08:10:45.188Z,49.28
2022-08-17T08:11:44.411Z,48.51
2022-08-17T08:12:43.552Z,47.77
2022-08-17T08:13:43.558Z,48.01
2022-08-17T08:14:43.486Z,47.55
2022-08-17T08:15:45.259Z,48.28
2022-08-17T08:16:43.517Z,48.97
2022-08-17T08:17:43.459Z,48.68
2022-08-17T08:18:53.890Z,48.93
2022-08-17T08:19:43.433Z,47.76
2022-08-17T08:20:52.763Z,48.24
2022-08-17T08:21:43.393Z,48.18
2022-08-17T08:22:43.359Z,47.75
2022-08-17T08:23:43.369Z,47.00
2022-08-17T08:24:43.326Z,46.53
2022-08-17T08:25:43.318Z,46.75
2022-08-17T08:26:43.336Z,47.13
2022-08-17T08:27:43.355Z,45.85
2022-08-17T08:28:43.337Z,44.52
2022-08-17T08:29:43.278Z,44.28
2022-08-17T08:30:43.252Z,42.81
2022-08-17T08:31:43.249Z,42.67
2022-08-17T08:32:43.247Z,42.81
2022-08-17T08:33:43.289Z,42.70
2022-08-17T08:34:47.400Z,43.82
2022-08-17T08:35:43.308Z,43.63
2022-08-17T08:37:12.763Z,42.97
2022-08-17T08:37:43.620Z,43.42
2022-08-17T08:38:43.176Z,44.05
2022-08-17T08:39:43.207Z,43.96
2022-08-17T08:40:43.164Z,43.92
2022-08-17T08:41:44.011Z,44.68
2022-08-17T08:42:43.123Z,44.39
2022-08-17T08:43:43.141Z,43.39
2022-08-17T08:45:00.207Z,42.46
2022-08-17T08:45:43.088Z,43.70
2022-08-17T08:46:43.096Z,44.08
2022-08-17T08:47:43.078Z,43.49
2022-08-17T08:48:53.899Z,43.77
2022-08-17T08:50:03.305Z,43.73
2022-08-17T08:50:43.029Z,42.83
2022-08-17T08:51:43.002Z,42.42
2022-08-17T08:52:42.997Z,41.29
2022-08-17T08:53:42.991Z,40.56
2022-08-17T08:54:42.999Z,41.49
2022-08-17T08:55:42.977Z,40.16
2022-08-17T08:56:53.997Z,38.96
2022-08-17T08:57:42.938Z,39.58
2022-08-17T08:58:43.043Z,38.42
2022-08-17T08:59:44.322Z,37.61
2022-08-17T09:00:42.943Z,39.38
2022-08-17T09:01:42.991Z,39.56
2022-08-17T09:02:42.908Z,40.18
2022-08-17T09:03:52.777Z,40.82
2022-08-17T09:05:10.311Z,40.62
2022-08-17T09:05:42.899Z,40.53
2022-08-17T09:06:42.829Z,41.24
2022-08-17T09:07:42.922Z,39.94
2022-08-17T09:08:42.830Z,40.07
2022-08-17T09:09:42.803Z,39.73
2022-08-17T09:10:42.777Z,40.58
2022-08-17T09:12:01.870Z,39.46
2022-08-17T09:12:42.752Z,39.13
2022-08-17T09:13:42.749Z,39.51
2022-08-17T09:14:46.812Z,39.56
2022-08-17T09:15:42.728Z,40.43
2022-08-17T09:16:42.693Z,39.92
2022-08-17T09:17:42.769Z,39.56
2022-08-17T09:19:02.550Z,39.35
2022-08-17T09:19:42.695Z,39.95
2022-08-17T09:20:46.579Z,39.93
2022-08-17T09:21:48.772Z,40.83
2022-08-17T09:22:42.696Z,39.44
2022-08-17T09:23:42.644Z,38.87
2022-08-17T09:24:42.617Z,38.04
2022-08-17T09:25:42.619Z,38.71
2022-08-17T09:26:42.585Z,39.07
2022-08-17T09:27:42.597Z,39.81
2022-08-17T09:28:42.557Z,38.35
2022-08-17T09:29:42.609Z,38.27
2022-08-17T09:30:42.572Z,37.77
2022-08-17T09:31:49.283Z,37.43
2022-08-17T09:32:42.567Z,36.13
2022-08-17T09:33:42.500Z,36.37
2022-08-17T09:34:43.530Z,36.11
2022-08-17T09:35:42.509Z,36.38
2022-08-17T09:36:42.498Z,37.13
2022-08-17T09:37:42.480Z,36.07
2022-08-17T09:38:42.476Z,35.23
2022-08-17T09:39:42.622Z,35.05
2022-08-17T09:40:42.446Z,33.86
2022-08-17T09:41:48.460Z,34.67
2022-08-17T09:42:42.428Z,34.19
2022-08-17T09:43:42.385Z,34.48
2022-08-17T09:44:42.421Z,34.69
2022-08-17T09:45:42.383Z,34.20
2022-08-17T09:46:42.550Z,33.31
2022-08-17T09:47:42.825Z,33.04
2022-08-17T09:48:42.377Z,32.61
2022-08-17T09:49:42.340Z,33.79
2022-08-17T09:51:05.453Z,34.54
2022-08-17T09:51:42.314Z,35.55
2022-08-17T09:52:42.342Z,35.14
2022-08-17T09:53:44.776Z,36.13
2022-08-17T09:54:42.296Z,36.71
2022-08-17T09:55:42.251Z,35.52
2022-08-17T09:56:46.153Z,34.34
2022-08-17T09:57:42.275Z,33.83
2022-08-17T09:58:42.218Z,34.02
2022-08-17T09:59:42.214Z,32.31
2022-08-17T10:00:42.213Z,32.16
2022-08-17T10:01:42.222Z,32.35
2022-08-17T10:02:42.160Z,32.57
2022-08-17T10:03:42.191Z,31.92
2022-08-17T10:04:42.168Z,31.44
2022-08-17T10:05:42.155Z,32.60
2022-08-17T10:06:42.161Z,31.52
2022-08-17T10:07:42.122Z,32.14
2022-08-17T10:08:42.242Z,32.24
2022-08-17T10:09:42.166Z,32.05
2022-08-17T10:10:42.085Z,31.84
2022-08-17T10:11:44.875Z,31.62
2022-08-17T10:12:46.506Z,31.32
2022-08-17T10:13:52.785Z,32.40
2022-08-17T10:14:43.796Z,33.35
2022-08-17T10:15:42.727Z,33.67
2022-08-17T10:16:42.063Z,33.08
2022-08-17T10:17:42.007Z,33.46
2022-08-17T10:18:42.006Z,34.02
2022-08-17T10:19:44.100Z,34.52
2022-08-17T10:20:42.024Z,33.76
2022-08-17T10:21:41.954Z,34.15
2022-08-17T10:22:41.975Z,33.91
2022-08-17T10:23:41.957Z,33.91
2022-08-17T10:25:21.738Z,32.19
2022-08-17T10:25:54.715Z,31.89
2022-08-17T10:26:56.208Z,31.58
2022-08-17T10:27:41.918Z,31.39
2022-08-17T10:28:41.905Z,31.12
2022-08-17T10:29:48.887Z,31.05
2022-08-17T10:30:41.883Z,32.66
2022-08-17T10:31:41.965Z,33.89
2022-08-17T10:32:41.873Z,34.75
2022-08-17T10:33:41.838Z,35.35
2022-08-17T10:34:42.018Z,35.75
2022-08-17T10:35:41.797Z,33.34
2022-08-17T10:36:41.795Z,33.31
2022-08-17T10:37:41.790Z,33.10
2022-08-17T10:38:41.799Z,34.23
2022-08-17T10:39:52.322Z,35.30
2022-08-17T10:40:41.766Z,33.81
2022-08-17T10:41:41.757Z,33.03
2022-08-17T10:42:41.724Z,33.24
2022-08-17T10:43:41.788Z,33.29
2022-08-17T10:44:41.722Z,33.06
2022-08-17T10:45:41.703Z,32.81
2022-08-17T10:46:41.705Z,33.07
2022-08-17T10:48:00.058Z,33.14
2022-08-17T10:48:41.691Z,32.24
2022-08-17T10:49:41.648Z,33.42
2022-08-17T10:50:41.653Z,33.45
2022-08-17T10:51:41.694Z,33.73
2022-08-17T10:52:41.625Z,33.85
2022-08-17T10:53:41.632Z,35.35
2022-08-17T10:54:41.627Z,36.14
2022-08-17T10:55:41.570Z,37.08
2022-08-17T10:56:41.614Z,37.24
2022-08-17T10:57:41.555Z,37.20
2022-08-17T10:58:41.563Z,37.27
2022-08-17T10:59:41.542Z,36.16
2022-08-17T11:00:41.608Z,35.68
2022-08-17T11:01:41.489Z,33.84
2022-08-17T11:02:41.506Z,33.94
2022-08-17T11:03:41.488Z,35.10
2022-08-17T11:04:41.463Z,34.61
2022-08-17T11:05:43.852Z,35.97
2022-08-17T11:06:41.435Z,35.99
2022-08-17T11:07:41.437Z,35.82
2022-08-17T11:08:41.523Z,35.80
2022-08-17T11:09:41.444Z,36.03
2022-08-17T11:10:41.406Z,35.73
2022-08-17T11:11:41.400Z,36.30
2022-08-17T11:12:42.402Z,37.04
2022-08-17T11:13:41.376Z,36.62
2022-08-17T11:14:41.373Z,36.05
2022-08-17T11:15:41.367Z,35.80
2022-08-17T11:16:41.323Z,36.35
2022-08-17T11:17:41.331Z,35.90
2022-08-17T11:18:41.311Z,36.40
2022-08-17T11:19:41.286Z,36.05
2022-08-17T11:20:41.266Z,37.23
2022-08-17T11:21:41.290Z,36.30
2022-08-17T11:22:41.279Z,35.68
2022-08-17T11:23:41.222Z,36.70
2022-08-17T11:24:44.610Z,35.32
2022-08-17T11:25:41.226Z,34.58
2022-08-17T11:26:41.241Z,33.50
2022-08-17T11:27:41.210Z,31.33
2022-08-17T11:28:41.185Z,32.07
2022-08-17T11:29:41.175Z,32.49
2022-08-17T11:30:41.173Z,32.88
2022-08-17T11:31:41.358Z,33.05
2022-08-17T11:32:47.239Z,34.22
2022-08-17T11:33:41.141Z,33.28
2022-08-17T11:34:41.127Z,33.20
2022-08-17T11:35:41.113Z,33.20
2022-08-17T11:36:41.088Z,32.97
2022-08-17T11:37:41.068Z,32.46
2022-08-17T11:38:41.062Z,32.58
2022-08-17T11:39:41.106Z,31.60
2022-08-17T11:40:43.774Z,31.59
2022-08-17T11:41:41.597Z,32.32
2022-08-17T11:42:41.027Z,31.36
2022-08-17T11:43:42.974Z,30.87
2022-08-17T11:44:40.995Z,31.95
2022-08-17T11:45:40.968Z,30.47
2022-08-17T11:46:41.103Z,31.22
2022-08-17T11:47:40.959Z,31.95
2022-08-17T11:48:40.990Z,32.65
2022-08-17T11:49:41.032Z,33.02
2022-08-17T11:50:40.938Z,33.80
2022-08-17T11:51:40.976Z,32.32
2022-08-17T11:52:40.915Z,32.35
2022-08-17T11:53:41.474Z,30.45
2022-08-17T11:54:40.958Z,29.85
2022-08-17T11:55:44.873Z,30.68
2022-08-17T11:56:40.891Z,29.98
2022-08-17T11:57:40.880Z,29.30
2022-08-17T11:58:40.907Z,28.54
2022-08-17T11:59:40.820Z,28.78
2022-08-17T12:00:40.844Z,28.96
2022-08-17T12:01:40.857Z,28.03
2022-08-17T12:02:44.420Z,28.48
2022-08-17T12:03:40.797Z,28.85
2022-08-17T12:04:40.847Z,29.01
2022-08-17T12:05:40.818Z,30.78
2022-08-17T12:06:40.751Z,31.31
2022-08-17T12:07:40.780Z,33.30
2022-08-17T12:08:40.735Z,33.69
2022-08-17T12:09:40.700Z,33.85
2022-08-17T12:10:40.685Z,34.75
2022-08-17T12:11:57.808Z,35.04
2022-08-17T12:12:40.721Z,35.28
2022-08-17T12:13:40.657Z,35.42
2022-08-17T12:15:08.186Z,33.65
2022-08-17T12:15:40.695Z,34.03
2022-08-17T12:16:40.632Z,33.94
2022-08-17T12:17:42.893Z,33.57
2022-08-17T12:18:40.637Z,34.24
2022-08-17T12:19:40.615Z,34.17
2022-08-17T12:20:40.575Z,33.22
2022-08-17T12:21:40.617Z,33.54
2022-08-17T12:22:40.576Z,32.76
2022-08-17T12:23:40.640Z,34.18
2022-08-17T12:24:40.636Z,31.51
2022-08-17T12:25:40.585Z,30.25
2022-08-17T12:26:40.584Z,29.65
2022-08-17T12:28:04.545Z,30.68
2022-08-17T12:28:40.552Z,30.09
2022-08-17T12:29:40.513Z,30.85
2022-08-17T12:30:40.514Z,31.11
2022-08-17T12:31:40.832Z,32.06
2022-08-17T12:32:40.469Z,31.45
2022-08-17T12:33:40.510Z,29.98
2022-08-17T12:34:40.461Z,30.48
2022-08-17T12:35:40.443Z,31.19
2022-08-17T12:36:40.388Z,30.29
2022-08-17T12:37:40.389Z,30.90
2022-08-17T12:38:40.449Z,30.77
2022-08-17T12:39:40.464Z,32.26
2022-08-17T12:40:40.365Z,33.09
2022-08-17T12:41:40.438Z,32.70
2022-08-17T12:42:40.433Z,33.59
2022-08-17T12:43:40.306Z,31.97
2022-08-17T12:44:42.584Z,30.28
2022-08-17T12:45:40.350Z,31.36
2022-08-17T12:46:40.300Z,32.08
2022-08-17T12:47:40.297Z,32.64
2022-08-17T12:48:40.317Z,34.02